Shell Fueler — WZW7217 — position and weather

sailwx.info

Track history (hours):
 
Tides and Currents Weather Stations Pressure Air Temp Water Temp Dewpoint Dewpoint Depression Visibility Wind Speed Wind Dir Waves Ship Positions

Shell Fueler

Owner: JOHN W STONE OIL DIST .LLC, GRETNA, LA. More information available from US FCC via Universal Licensing System and Coast Guard Vessel Documentation Center.

Last reported at 2015-Mar-31 22:33 UTC. Time now 2015-Apr-01 08:05 UTC.
Position N 29°56' W 090°08'.

Length 21 m; draft 2.5 m.

Type: Towing. MMSI: 366954210.

Date/timePositionNaut miles runAvg speedWind from/ knotsBaromVisibWave heightAir tempDewpointWater temp
2015-Mar-31 22:33N 29°56' W 090°08'3 3.0
2015-Mar-31 21:33N 29°55' W 090°05'1 1.5
2015-Mar-31 20:33N 29°53' W 090°05'0 0.1
2015-Mar-31 19:33N 29°53' W 090°05'0 0.0
2015-Mar-31 18:32N 29°53' W 090°05'3 3.6
2015-Mar-31 17:33N 29°50' W 090°04'6 0.2
2015-Mar-30 16:06N 29°55' W 090°04'0 0.0
2015-Mar-30 15:21N 29°55' W 090°04'0 0.0
2015-Mar-30 14:31N 29°55' W 090°04'0 0.1
2015-Mar-30 13:32N 29°55' W 090°04'0 0.0
2015-Mar-30 12:27N 29°55' W 090°04'0 0.0
2015-Mar-30 11:33N 29°55' W 090°04'0 0.1
2015-Mar-30 10:29N 29°55' W 090°04'0 0.1
2015-Mar-30 09:30N 29°55' W 090°04'0 0.0
2015-Mar-30 08:31N 29°55' W 090°04'0 0.0
2015-Mar-30 07:33N 29°55' W 090°04'1 1.1
2015-Mar-30 06:31N 29°55' W 090°05'1 0.6
2015-Mar-30 05:27N 29°55' W 090°04'3 2.8
2015-Mar-30 04:31N 29°57' W 090°03'3 3.2
2015-Mar-30 03:32N 29°56' W 089°59'2 1.7
2015-Mar-30 02:33N 29°55' W 089°58'0 0.0
2015-Mar-30 01:27N 29°55' W 089°58'2 2.3
2015-Mar-30 00:32N 29°56' W 089°60'0 0.0
2015-Mar-29 23:31N 29°56' W 089°60'1 0.1
2015-Mar-29 12:30N 29°57' W 090°01'0 0.0
2015-Mar-29 11:13N 29°57' W 090°01'0 0.0
2015-Mar-29 10:19N 29°57' W 090°01'3 0.2
2015-Mar-28 17:30N 29°56' W 090°04'0 0.0
2015-Mar-28 15:26N 29°56' W 090°04'3 0.8
2015-Mar-28 12:17N 29°53' W 090°05'0 0.0
2015-Mar-28 11:28N 29°53' W 090°05'0 0.0
2015-Mar-28 10:24N 29°53' W 090°05'0 0.0
2015-Mar-28 09:30N 29°53' W 090°05'1 1.4
2015-Mar-28 08:28N 29°52' W 090°04'21 0.6
2015-Mar-26 19:33N 29°37' W 090°21'22 1.4
2015-Mar-26 03:20N 29°55' W 090°05'1 0.4
2015-Mar-26 01:24N 29°55' W 090°04'0 0.3
2015-Mar-26 00:28N 29°55' W 090°04'0 0.0
2015-Mar-25 23:30N 29°55' W 090°04'0 0.0
2015-Mar-25 22:20N 29°55' W 090°04'0 0.0
2015-Mar-25 21:09N 29°55' W 090°04'0 0.1
2015-Mar-25 20:25N 29°55' W 090°04'0 0.1
2015-Mar-25 19:26N 29°55' W 090°04'0 0.1
2015-Mar-25 18:33N 29°55' W 090°04'0 0.0
2015-Mar-25 17:30N 29°55' W 090°04'0 0.2
2015-Mar-25 16:31N 29°56' W 090°04'2 1.5
2015-Mar-25 15:30N 29°55' W 090°05'3 2.8
2015-Mar-25 14:32N 29°52' W 090°04'0 0.5
2015-Mar-25 13:32N 29°52' W 090°04'0 0.0
2015-Mar-25 12:33N 29°52' W 090°04'0 0.0
2015-Mar-25 11:33N 29°52' W 090°04'0 0.0
2015-Mar-25 10:33N 29°52' W 090°04'0 0.0
2015-Mar-25 09:33N 29°52' W 090°04'0 0.0
2015-Mar-25 08:30N 29°52' W 090°04'0 0.1
2015-Mar-25 07:32N 29°52' W 090°04'0 0.0
2015-Mar-25 06:32N 29°52' W 090°04'1 0.5
2015-Mar-25 05:29N 29°51' W 090°04'21 0.5
2015-Mar-23 12:11N 29°37' W 090°21'  
Track history (hours):
 
Tides and Currents Weather Stations Pressure Air Temp Water Temp Dewpoint Dewpoint Depression Visibility Wind Speed Wind Dir Waves Ship Positions

Shell Fueler

Owner: JOHN W STONE OIL DIST .LLC, GRETNA, LA. More information available from US FCC via Universal Licensing System and Coast Guard Vessel Documentation Center.

Last reported at 2015-Mar-31 22:33 UTC. Time now 2015-Apr-01 08:05 UTC.
Position N 29°56' W 090°08'.

Length 21 m; draft 2.5 m.

Type: Towing. MMSI: 366954210.

Date/timePositionNaut miles runAvg speedWind from/ knotsBaromVisibWave heightAir tempDewpointWater temp
2015-Mar-31 22:33N 29°56' W 090°08'3 3.0
2015-Mar-31 21:33N 29°55' W 090°05'1 1.5
2015-Mar-31 20:33N 29°53' W 090°05'0 0.1
2015-Mar-31 19:33N 29°53' W 090°05'0 0.0
2015-Mar-31 18:32N 29°53' W 090°05'3 3.6
2015-Mar-31 17:33N 29°50' W 090°04'6 0.2
2015-Mar-30 16:06N 29°55' W 090°04'0 0.0
2015-Mar-30 15:21N 29°55' W 090°04'0 0.0
2015-Mar-30 14:31N 29°55' W 090°04'0 0.1
2015-Mar-30 13:32N 29°55' W 090°04'0 0.0
2015-Mar-30 12:27N 29°55' W 090°04'0 0.0
2015-Mar-30 11:33N 29°55' W 090°04'0 0.1
2015-Mar-30 10:29N 29°55' W 090°04'0 0.1
2015-Mar-30 09:30N 29°55' W 090°04'0 0.0
2015-Mar-30 08:31N 29°55' W 090°04'0 0.0
2015-Mar-30 07:33N 29°55' W 090°04'1 1.1
2015-Mar-30 06:31N 29°55' W 090°05'1 0.6
2015-Mar-30 05:27N 29°55' W 090°04'3 2.8
2015-Mar-30 04:31N 29°57' W 090°03'3 3.2
2015-Mar-30 03:32N 29°56' W 089°59'2 1.7
2015-Mar-30 02:33N 29°55' W 089°58'0 0.0
2015-Mar-30 01:27N 29°55' W 089°58'2 2.3
2015-Mar-30 00:32N 29°56' W 089°60'0 0.0
2015-Mar-29 23:31N 29°56' W 089°60'1 0.1
2015-Mar-29 12:30N 29°57' W 090°01'0 0.0
2015-Mar-29 11:13N 29°57' W 090°01'0 0.0
2015-Mar-29 10:19N 29°57' W 090°01'3 0.2
2015-Mar-28 17:30N 29°56' W 090°04'0 0.0
2015-Mar-28 15:26N 29°56' W 090°04'3 0.8
2015-Mar-28 12:17N 29°53' W 090°05'0 0.0
2015-Mar-28 11:28N 29°53' W 090°05'0 0.0
2015-Mar-28 10:24N 29°53' W 090°05'0 0.0
2015-Mar-28 09:30N 29°53' W 090°05'1 1.4
2015-Mar-28 08:28N 29°52' W 090°04'21 0.6
2015-Mar-26 19:33N 29°37' W 090°21'22 1.4
2015-Mar-26 03:20N 29°55' W 090°05'1 0.4
2015-Mar-26 01:24N 29°55' W 090°04'0 0.3
2015-Mar-26 00:28N 29°55' W 090°04'0 0.0
2015-Mar-25 23:30N 29°55' W 090°04'0 0.0
2015-Mar-25 22:20N 29°55' W 090°04'0 0.0
2015-Mar-25 21:09N 29°55' W 090°04'0 0.1
2015-Mar-25 20:25N 29°55' W 090°04'0 0.1
2015-Mar-25 19:26N 29°55' W 090°04'0 0.1
2015-Mar-25 18:33N 29°55' W 090°04'0 0.0
2015-Mar-25 17:30N 29°55' W 090°04'0 0.2
2015-Mar-25 16:31N 29°56' W 090°04'2 1.5
2015-Mar-25 15:30N 29°55' W 090°05'3 2.8
2015-Mar-25 14:32N 29°52' W 090°04'0 0.5
2015-Mar-25 13:32N 29°52' W 090°04'0 0.0
2015-Mar-25 12:33N 29°52' W 090°04'0 0.0
2015-Mar-25 11:33N 29°52' W 090°04'0 0.0
2015-Mar-25 10:33N 29°52' W 090°04'0 0.0
2015-Mar-25 09:33N 29°52' W 090°04'0 0.0
2015-Mar-25 08:30N 29°52' W 090°04'0 0.1
2015-Mar-25 07:32N 29°52' W 090°04'0 0.0
2015-Mar-25 06:32N 29°52' W 090°04'1 0.5
2015-Mar-25 05:29N 29°51' W 090°04'21 0.5
2015-Mar-23 12:11N 29°37' W 090°21'  

Dump ship's entire track history